Time;durP1;ratioP1;P1;durP2;ratioP2;P2;SDS_P1;SDS_P2;PMS_P1;PMS_P2;Temp;Humidity;BMP_temperature;BMP_pressure;BME280_temperature;BME280_humidity;BME280_pressure;Samples;Min_cycle;Max_cycle;Signal;HPM_P1;HPM_P2
2022/04/20 00:00:53;;;;;;;4.30;3.30;;;;;;;;;;5007323;28;20581;-75
2022/04/20 00:03:19;;;;;;;4.65;3.50;;;;;;;;;;4984759;28;20045;-76
2022/04/20 00:05:45;;;;;;;8.13;3.50;;;;;;;;;;5012636;28;20042;-76
2022/04/20 00:08:11;;;;;;;7.47;3.50;;;;;;;;;;4995788;28;20054;-76
2022/04/20 00:10:37;;;;;;;6.25;3.28;;;;;;;;;;4996499;28;20046;-76
2022/04/20 00:13:04;;;;;;;3.90;3.17;;;;;;;;;;4997584;28;20046;-76
2022/04/20 00:15:30;;;;;;;5.05;3.30;;;;;;;;;;4988162;28;20086;-76
2022/04/20 00:17:56;;;;;;;6.82;3.60;;;;;;;;;;4975640;28;20485;-76
2022/04/20 00:20:22;;;;;;;6.20;3.85;;;;;;;;;;4981148;28;20050;-74
2022/04/20 00:22:48;;;;;;;5.43;3.42;;;;;;;;;;4992614;28;20501;-78
2022/04/20 00:25:14;;;;;;;5.00;3.40;;;;;;;;;;4992811;28;20481;-75
2022/04/20 00:27:40;;;;;;;5.80;3.40;;;;;;;;;;4987607;28;20571;-76
2022/04/20 00:30:10;;;;;;;7.28;3.17;;;;;;;;;;4977737;28;20046;-77
2022/04/20 00:32:36;;;;;;;4.38;3.03;;;;;;;;;;4995279;28;20101;-76
2022/04/20 00:35:03;;;;;;;5.13;2.92;;;;;;;;;;4975641;28;20076;-75
2022/04/20 00:37:29;;;;;;;4.68;3.00;;;;;;;;;;4978856;28;20050;-75
2022/04/20 00:39:55;;;;;;;4.00;3.17;;;;;;;;;;5004284;28;20104;-77
2022/04/20 00:42:23;;;;;;;4.82;3.00;;;;;;;;;;5007596;28;20041;-75
2022/04/20 00:44:52;;;;;;;6.75;3.50;;;;;;;;;;4995195;28;20082;-78
2022/04/20 00:47:18;;;;;;;6.78;3.80;;;;;;;;;;4996454;28;20084;-78
2022/04/20 00:49:46;;;;;;;9.30;3.17;;;;;;;;;;4980670;28;20074;-75
2022/04/20 00:52:12;;;;;;;4.55;3.40;;;;;;;;;;4986109;28;20049;-75
2022/04/20 00:54:38;;;;;;;5.55;3.60;;;;;;;;;;5003404;28;20408;-74
2022/04/20 00:57:05;;;;;;;4.05;3.35;;;;;;;;;;4987450;28;20053;-75
2022/04/20 00:59:31;;;;;;;5.72;3.70;;;;;;;;;;4989234;28;20056;-77
2022/04/20 01:01:58;;;;;;;4.65;3.10;;;;;;;;;;5012378;28;20053;-75
2022/04/20 01:04:25;;;;;;;4.15;3.22;;;;;;;;;;4990682;28;20074;-75
2022/04/20 01:06:51;;;;;;;7.05;3.67;;;;;;;;;;4983848;28;20042;-74
2022/04/20 01:09:17;;;;;;;8.32;3.50;;;;;;;;;;4970610;28;20088;-75
2022/04/20 01:11:43;;;;;;;6.65;3.78;;;;;;;;;;4980336;28;20081;-74
2022/04/20 01:14:10;;;;;;;10.02;3.70;;;;;;;;;;5003420;28;20054;-74
2022/04/20 01:16:36;;;;;;;6.18;3.97;;;;;;;;;;4965845;28;20049;-75
2022/04/20 01:19:03;;;;;;;16.48;3.65;;;;;;;;;;4995922;28;20466;-75
2022/04/20 01:21:29;;;;;;;3.95;3.20;;;;;;;;;;4992795;28;20057;-74
2022/04/20 01:23:55;;;;;;;6.15;3.60;;;;;;;;;;4980177;28;20046;-75
2022/04/20 01:26:21;;;;;;;5.28;3.42;;;;;;;;;;4992983;28;20120;-79
2022/04/20 01:28:48;;;;;;;6.47;3.45;;;;;;;;;;4996309;28;20409;-74
2022/04/20 01:31:18;;;;;;;5.88;3.67;;;;;;;;;;4996152;28;20052;-74
2022/04/20 01:33:44;;;;;;;4.97;3.17;;;;;;;;;;4979578;28;20135;-74
2022/04/20 01:36:11;;;;;;;5.03;3.55;;;;;;;;;;4995718;28;20057;-74
2022/04/20 01:38:38;;;;;;;4.45;3.60;;;;;;;;;;4986916;28;20066;-75
2022/04/20 01:41:04;;;;;;;5.60;3.70;;;;;;;;;;4966873;28;20041;-74
2022/04/20 01:43:30;;;;;;;7.82;3.88;;;;;;;;;;4999754;28;20054;-75
2022/04/20 01:45:57;;;;;;;5.85;3.58;;;;;;;;;;4986722;28;20069;-74
2022/04/20 01:48:23;;;;;;;6.03;3.55;;;;;;;;;;4994835;28;20489;-78
2022/04/20 01:53:33;;;;;;;6.47;3.90;;;;;;;;;;4979970;28;20072;-75
2022/04/20 01:56:00;;;;;;;5.03;3.90;;;;;;;;;;4985703;28;20098;-75
2022/04/20 01:58:29;;;;;;;5.30;3.72;;;;;;;;;;4984531;28;20068;-76
2022/04/20 02:00:55;;;;;;;5.50;3.72;;;;;;;;;;4981227;28;20562;-75
2022/04/20 02:03:21;;;;;;;6.45;3.88;;;;;;;;;;4987402;28;20085;-75
2022/04/20 02:05:47;;;;;;;6.00;4.30;;;;;;;;;;4994776;28;20053;-76
2022/04/20 02:08:13;;;;;;;5.70;3.92;;;;;;;;;;4993940;28;20073;-75
2022/04/20 02:10:40;;;;;;;9.48;4.65;;;;;;;;;;5012549;28;20056;-75
2022/04/20 02:13:06;;;;;;;5.43;3.67;;;;;;;;;;4994556;28;20038;-75
2022/04/20 02:15:32;;;;;;;6.97;4.28;;;;;;;;;;4994639;28;20086;-75
2022/04/20 02:17:58;;;;;;;5.43;4.00;;;;;;;;;;4978555;28;20042;-75
2022/04/20 02:20:25;;;;;;;5.50;4.10;;;;;;;;;;5011350;28;20088;-77
2022/04/20 02:22:51;;;;;;;8.13;3.83;;;;;;;;;;4978034;28;20145;-75
2022/04/20 02:25:17;;;;;;;6.75;3.83;;;;;;;;;;5010796;28;20064;-75
2022/04/20 02:27:43;;;;;;;7.03;4.10;;;;;;;;;;4977586;28;20046;-74
2022/04/20 02:30:09;;;;;;;5.03;3.78;;;;;;;;;;4977298;28;20042;-74
2022/04/20 02:32:35;;;;;;;19.08;4.78;;;;;;;;;;4993544;28;20050;-74
2022/04/20 02:35:01;;;;;;;6.38;4.30;;;;;;;;;;4994402;28;20049;-75
2022/04/20 02:37:29;;;;;;;5.13;4.22;;;;;;;;;;4994110;28;20054;-77
2022/04/20 02:39:55;;;;;;;7.60;4.20;;;;;;;;;;4994515;28;20103;-75
2022/04/20 02:42:21;;;;;;;6.88;3.90;;;;;;;;;;4978150;28;20045;-75
2022/04/20 02:44:47;;;;;;;6.00;4.20;;;;;;;;;;4980670;28;20088;-74
2022/04/20 02:47:16;;;;;;;7.25;4.18;;;;;;;;;;4978312;28;20497;-75
2022/04/20 02:49:42;;;;;;;6.75;4.10;;;;;;;;;;4992592;28;20076;-75
2022/04/20 02:52:08;;;;;;;9.23;4.72;;;;;;;;;;4994220;28;20045;-75
2022/04/20 02:54:34;;;;;;;6.47;4.22;;;;;;;;;;4977338;28;20049;-75
2022/04/20 02:57:00;;;;;;;7.25;5.13;;;;;;;;;;5011578;28;20077;-74
2022/04/20 02:59:26;;;;;;;6.65;4.28;;;;;;;;;;5011417;28;20049;-75
2022/04/20 03:01:52;;;;;;;5.88;4.47;;;;;;;;;;4993022;28;20058;-75
2022/04/20 03:04:18;;;;;;;7.88;4.20;;;;;;;;;;4976933;28;20125;-75
2022/04/20 03:06:44;;;;;;;7.38;4.13;;;;;;;;;;4974568;28;20050;-75
2022/04/20 03:09:11;;;;;;;6.68;4.55;;;;;;;;;;4993809;28;20054;-74
2022/04/20 03:11:37;;;;;;;9.27;4.65;;;;;;;;;;4993842;28;20046;-74
2022/04/20 03:14:03;;;;;;;10.40;3.92;;;;;;;;;;4977485;28;20050;-78
2022/04/20 03:16:29;;;;;;;7.18;4.50;;;;;;;;;;4978088;28;20081;-78
2022/04/20 03:18:55;;;;;;;6.53;4.45;;;;;;;;;;4993246;28;20042;-75
2022/04/20 03:21:21;;;;;;;7.75;4.63;;;;;;;;;;4975599;28;20042;-74
2022/04/20 03:23:47;;;;;;;8.05;4.45;;;;;;;;;;5005576;28;20053;-74
2022/04/20 03:26:13;;;;;;;6.47;4.78;;;;;;;;;;4992698;28;20085;-74
2022/04/20 03:28:39;;;;;;;6.60;4.28;;;;;;;;;;4977334;28;20042;-74
2022/04/20 03:31:05;;;;;;;7.85;4.68;;;;;;;;;;4994480;28;20045;-74
2022/04/20 03:33:31;;;;;;;8.38;4.63;;;;;;;;;;4975659;28;20054;-75
2022/04/20 03:35:58;;;;;;;9.15;5.00;;;;;;;;;;4976300;28;20050;-74
2022/04/20 03:38:24;;;;;;;7.68;4.72;;;;;;;;;;4978962;28;20045;-75
2022/04/20 03:40:50;;;;;;;7.40;4.20;;;;;;;;;;5012014;28;20508;-74
2022/04/20 03:43:16;;;;;;;10.13;5.18;;;;;;;;;;4997048;28;20107;-75
2022/04/20 03:45:42;;;;;;;7.93;4.57;;;;;;;;;;4997936;28;20404;-74
2022/04/20 03:48:08;;;;;;;9.15;5.13;;;;;;;;;;4998060;28;20057;-74
2022/04/20 03:50:34;;;;;;;7.90;4.93;;;;;;;;;;4997604;28;20049;-75
2022/04/20 03:53:00;;;;;;;7.35;5.13;;;;;;;;;;4965586;28;20057;-74
2022/04/20 03:55:26;;;;;;;6.13;4.60;;;;;;;;;;4994348;28;20054;-75
2022/04/20 03:57:52;;;;;;;6.45;4.88;;;;;;;;;;4996747;28;20053;-75
2022/04/20 04:00:20;;;;;;;8.57;4.82;;;;;;;;;;4986808;28;20089;-75
2022/04/20 04:02:46;;;;;;;8.50;4.57;;;;;;;;;;4990430;28;20141;-74
2022/04/20 04:05:12;;;;;;;8.23;4.47;;;;;;;;;;4989256;28;20056;-75
2022/04/20 04:07:40;;;;;;;10.18;4.38;;;;;;;;;;5009047;28;20057;-74
2022/04/20 04:10:06;;;;;;;16.17;4.35;;;;;;;;;;4994733;28;20125;-74
2022/04/20 04:12:32;;;;;;;7.63;4.57;;;;;;;;;;4980875;28;20054;-76
2022/04/20 04:14:58;;;;;;;6.20;4.53;;;;;;;;;;5007918;28;20061;-74
2022/04/20 04:17:24;;;;;;;6.30;4.20;;;;;;;;;;4997545;28;20057;-74
2022/04/20 04:19:50;;;;;;;6.60;4.85;;;;;;;;;;4981150;28;20038;-74
2022/04/20 04:22:17;;;;;;;8.38;4.15;;;;;;;;;;4981365;28;20046;-74
2022/04/20 04:24:43;;;;;;;7.97;4.65;;;;;;;;;;4996688;28;20046;-74
2022/04/20 04:27:10;;;;;;;7.38;4.88;;;;;;;;;;4993726;28;20038;-74
2022/04/20 04:29:37;;;;;;;7.30;5.13;;;;;;;;;;4986111;28;20037;-74
2022/04/20 04:32:03;;;;;;;9.75;5.25;;;;;;;;;;4997343;28;20049;-75
2022/04/20 04:34:29;;;;;;;6.55;4.22;;;;;;;;;;5014362;28;20042;-74
2022/04/20 04:36:56;;;;;;;8.38;4.60;;;;;;;;;;4978820;28;20038;-74
2022/04/20 04:39:23;;;;;;;8.63;4.90;;;;;;;;;;4993157;28;20080;-74
2022/04/20 04:41:49;;;;;;;9.63;4.82;;;;;;;;;;4995501;28;20046;-74
2022/04/20 04:44:19;;;;;;;10.15;4.50;;;;;;;;;;4988330;28;20426;-74
2022/04/20 04:49:30;;;;;;;10.52;4.82;;;;;;;;;;4996492;28;20050;-74
2022/04/20 04:51:57;;;;;;;6.85;4.13;;;;;;;;;;4995061;28;20065;-74
2022/04/20 04:54:23;;;;;;;8.68;4.82;;;;;;;;;;4989625;28;20606;-74
2022/04/20 04:56:49;;;;;;;6.20;4.90;;;;;;;;;;4977425;28;20134;-74
2022/04/20 04:59:16;;;;;;;7.95;4.40;;;;;;;;;;4993046;28;20042;-75
2022/04/20 05:01:42;;;;;;;9.55;4.90;;;;;;;;;;4980531;28;20049;-74
2022/04/20 05:04:08;;;;;;;6.28;4.47;;;;;;;;;;4979610;28;20161;-74
2022/04/20 05:06:35;;;;;;;7.53;4.55;;;;;;;;;;4995929;28;20049;-75
2022/04/20 05:09:01;;;;;;;7.85;4.65;;;;;;;;;;4994829;28;20056;-74
2022/04/20 05:11:27;;;;;;;7.00;4.95;;;;;;;;;;4996281;28;20137;-74
2022/04/20 05:13:54;;;;;;;7.70;4.32;;;;;;;;;;4982688;28;20126;-75
2022/04/20 05:16:20;;;;;;;7.13;4.47;;;;;;;;;;4993958;28;20132;-74
2022/04/20 05:18:46;;;;;;;5.60;4.18;;;;;;;;;;5012697;28;20064;-74
2022/04/20 05:21:12;;;;;;;7.50;4.28;;;;;;;;;;4994430;28;20130;-74
2022/04/20 05:23:39;;;;;;;7.28;4.38;;;;;;;;;;4978501;28;20046;-75
2022/04/20 05:26:05;;;;;;;6.70;3.97;;;;;;;;;;4991838;28;20551;-74
2022/04/20 05:28:31;;;;;;;6.28;3.95;;;;;;;;;;4961392;28;20478;-74
2022/04/20 05:30:57;;;;;;;6.70;4.00;;;;;;;;;;5007448;28;20228;-74
2022/04/20 05:33:23;;;;;;;6.70;4.03;;;;;;;;;;4986246;28;20049;-78
2022/04/20 05:35:49;;;;;;;5.75;3.70;;;;;;;;;;4979133;28;20042;-74
2022/04/20 05:43:44;;;;;;;6.60;3.33;;;;;;;;;;4994737;28;20080;-74
2022/04/20 05:46:10;;;;;;;5.32;4.13;;;;;;;;;;4995735;28;20046;-74
2022/04/20 05:48:36;;;;;;;6.22;3.65;;;;;;;;;;4979466;28;20093;-77
2022/04/20 05:51:03;;;;;;;4.75;3.55;;;;;;;;;;4998210;28;20047;-74
2022/04/20 05:53:29;;;;;;;7.05;3.50;;;;;;;;;;4987640;28;20099;-75
2022/04/20 05:55:55;;;;;;;6.85;3.58;;;;;;;;;;5001898;28;20046;-74
2022/04/20 05:58:21;;;;;;;6.68;3.38;;;;;;;;;;4977263;28;20046;-75
2022/04/20 06:00:47;;;;;;;8.68;3.83;;;;;;;;;;4963438;28;20068;-75
2022/04/20 06:03:13;;;;;;;6.93;3.80;;;;;;;;;;4994958;28;20077;-75
2022/04/20 06:05:40;;;;;;;5.88;3.65;;;;;;;;;;4978963;28;20054;-78
2022/04/20 06:08:06;;;;;;;5.95;3.83;;;;;;;;;;4969677;28;20038;-75
2022/04/20 06:10:32;;;;;;;7.38;3.20;;;;;;;;;;5000927;28;20458;-75
2022/04/20 06:12:59;;;;;;;4.05;3.20;;;;;;;;;;4978169;28;20061;-75
2022/04/20 06:15:25;;;;;;;7.97;4.07;;;;;;;;;;4994458;28;20089;-75
2022/04/20 06:17:51;;;;;;;5.40;3.75;;;;;;;;;;4994949;28;20458;-75
2022/04/20 06:20:18;;;;;;;7.07;3.78;;;;;;;;;;4994792;28;20473;-75
2022/04/20 06:22:44;;;;;;;6.30;3.83;;;;;;;;;;4987657;28;20456;-74
2022/04/20 06:25:10;;;;;;;6.88;3.35;;;;;;;;;;4990254;28;20038;-74
2022/04/20 06:27:36;;;;;;;;;;;;;;;;;;4986228;28;20068;-74
2022/04/20 06:30:03;;;;;;;6.40;3.90;;;;;;;;;;4994604;28;19961;-74
2022/04/20 06:32:29;;;;;;;8.00;3.45;;;;;;;;;;4978354;28;20501;-74
2022/04/20 06:34:56;;;;;;;;;;;;;;;;;;4986857;28;20073;-74
2022/04/20 06:37:22;;;;;;;;;;;;;;;;;;4992787;28;20000;-74
2022/04/20 06:39:49;;;;;;;;;;;;;;;;;;5008926;28;20020;-74
2022/04/20 06:42:15;;;;;;;;;;;;;;;;;;4991926;28;19944;-74
2022/04/20 06:44:41;;;;;;;;;;;;;;;;;;4992805;28;20361;-75
2022/04/20 06:47:07;;;;;;;;;;;;;;;;;;4976919;28;20019;-74
2022/04/20 06:49:33;;;;;;;;;;;;;;;;;;5006820;28;19925;-74
2022/04/20 07:00:16;;;;;;;;;;;;;;;;;;4992316;28;20357;-75
2022/04/20 07:02:42;;;;;;;;;;;;;;;;;;4992357;28;19921;-75
2022/04/20 07:05:09;;;;;;;;;;;;;;;;;;4992676;28;20258;-75
2022/04/20 07:07:35;;;;;;;;;;;;;;;;;;4973751;28;19925;-76
2022/04/20 07:10:01;;;;;;;;;;;;;;;;;;4992228;28;19929;-78
2022/04/20 07:12:27;;;;;;;;;;;;;;;;;;4992709;28;20264;-75
2022/04/20 07:14:53;;;;;;;;;;;;;;;;;;5012635;28;19917;-75
2022/04/20 07:17:19;;;;;;;;;;;;;;;;;;4996417;28;19933;-75
2022/04/20 07:19:45;;;;;;;;;;;;;;;;;;4997381;28;19917;-74
2022/04/20 07:22:11;;;;;;;;;;;;;;;;;;4998348;28;20454;-76
2022/04/20 07:24:37;;;;;;;;;;;;;;;;;;4982978;28;20296;-74
2022/04/20 07:27:02;;;;;;;;;;;;;;;;;;4977915;28;19948;-75
2022/04/20 07:29:28;;;;;;;;;;;;;;;;;;4998655;28;19959;-74
2022/04/20 07:31:54;;;;;;;;;;;;;;;;;;4997617;28;19921;-75
2022/04/20 07:34:20;;;;;;;;;;;;;;;;;;4998317;28;19948;-74
2022/04/20 07:36:49;;;;;;;;;;;;;;;;;;4986171;28;19991;-75
2022/04/20 07:39:15;;;;;;;;;;;;;;;;;;4995584;28;19968;-74
2022/04/20 07:41:41;;;;;;;;;;;;;;;;;;4993178;28;20329;-73
2022/04/20 07:44:07;;;;;;;;;;;;;;;;;;4976318;28;19968;-75
2022/04/20 07:46:33;;;;;;;;;;;;;;;;;;5010351;28;19925;-75
2022/04/20 07:50:17;;;;;;;;;;;;;;;;;;4986390;28;19928;-76
2022/04/20 07:51:45;;;;;;;;;;;;;;;;;;4995195;28;19929;-76
2022/04/20 07:54:11;;;;;;;;;;;;;;;;;;4998331;28;19921;-75
2022/04/20 07:56:36;;;;;;;;;;;;;;;;;;4992734;28;19928;-75
2022/04/20 07:59:02;;;;;;;;;;;;;;;;;;5010678;28;19929;-76
2022/04/20 08:01:28;;;;;;;;;;;;;;;;;;4982942;28;19925;-74
2022/04/20 08:03:54;;;;;;;;;;;;;;;;;;4995747;28;19925;-74
2022/04/20 08:06:20;;;;;;;;;;;;;;;;;;4985287;28;19932;-74
2022/04/20 08:08:46;;;;;;;;;;;;;;;;;;4994455;28;20056;-74
2022/04/20 08:11:12;;;;;;;;;;;;;;;;;;4979316;28;19925;-75
2022/04/20 08:16:23;;;;;;;;;;;;;;;;;;4976207;28;19933;-75
2022/04/20 08:18:49;;;;;;;;;;;;;;;;;;4978841;28;19926;-74
2022/04/20 08:21:15;;;;;;;;;;;;;;;;;;4979031;28;19922;-74
2022/04/20 08:23:41;;;;;;;;;;;;;;;;;;4982442;28;19922;-74
2022/04/20 08:26:07;;;;;;;;;;;;;;;;;;4975652;28;19943;-73
2022/04/20 08:28:34;;;;;;;;;;;;;;;;;;5006367;28;19925;-74
2022/04/20 08:31:00;;;;;;;;;;;;;;;;;;4993862;28;19960;-74
2022/04/20 08:33:25;;;;;;;;;;;;;;;;;;4996660;28;19965;-74
2022/04/20 08:35:52;;;;;;;;;;;;;;;;;;4995830;28;20383;-75
2022/04/20 08:38:18;;;;;;;;;;;;;;;;;;4996295;28;19979;-74
2022/04/20 08:40:44;;;;;;;;;;;;;;;;;;5010971;28;19964;-74
2022/04/20 08:43:10;;;;;;;;;;;;;;;;;;4995278;28;19925;-74
2022/04/20 08:45:38;;;;;;;;;;;;;;;;;;4996317;28;19928;-74
2022/04/20 08:48:04;;;;;;;;;;;;;;;;;;5012375;28;20276;-75
2022/04/20 08:50:30;;;;;;;;;;;;;;;;;;4995549;28;19929;-75
2022/04/20 08:52:57;;;;;;;;;;;;;;;;;;4989334;28;19928;-74
2022/04/20 08:55:22;;;;;;;;;;;;;;;;;;4994707;28;19962;-74
2022/04/20 08:57:48;;;;;;;;;;;;;;;;;;5012178;28;19991;-77
2022/04/20 09:00:19;;;;;;;;;;;;;;;;;;4980062;28;19922;-74
2022/04/20 09:02:46;;;;;;;2.05;1.58;;;;;;;;;;4995107;28;19922;-74
2022/04/20 09:05:12;;;;;;;1.75;1.40;;;;;;;;;;5010230;28;20044;-74
2022/04/20 09:07:39;;;;;;;2.72;1.58;;;;;;;;;;5012491;28;20044;-73
2022/04/20 09:10:05;;;;;;;5.15;2.08;;;;;;;;;;5009871;28;20050;-73
2022/04/20 09:12:31;;;;;;;3.28;1.52;;;;;;;;;;4994037;28;20471;-74
2022/04/20 09:15:00;;;;;;;2.10;1.30;;;;;;;;;;4991535;28;20057;-74
2022/04/20 09:17:27;;;;;;;1.63;1.52;;;;;;;;;;5005239;28;20058;-74
2022/04/20 09:19:54;;;;;;;3.10;1.67;;;;;;;;;;5010640;28;20053;-74
2022/04/20 09:22:21;;;;;;;2.20;1.38;;;;;;;;;;5010807;28;20421;-74
2022/04/20 09:25:08;;;;;;;2.65;1.40;;;;;;;;;;4996129;28;20136;-73
2022/04/20 09:27:39;;;;;;;3.97;1.60;;;;;;;;;;5010330;28;20081;-73
2022/04/20 09:30:09;;;;;;;4.22;1.75;;;;;;;;;;4992894;28;20444;-73
2022/04/20 09:32:42;;;;;;;1.95;1.55;;;;;;;;;;4994236;28;20535;-73
2022/04/20 09:35:12;;;;;;;4.97;1.70;;;;;;;;;;5010873;28;20052;-73
2022/04/20 09:37:39;;;;;;;4.72;2.40;;;;;;;;;;5010420;28;20420;-73
2022/04/20 09:40:06;;;;;;;3.83;1.70;;;;;;;;;;4995647;28;20062;-73
2022/04/20 09:42:34;;;;;;;6.53;1.45;;;;;;;;;;4993019;28;20050;-73
2022/04/20 09:45:04;;;;;;;3.35;2.00;;;;;;;;;;5010004;28;20096;-73
2022/04/20 09:50:25;;;;;;;3.63;1.67;;;;;;;;;;4993571;28;20078;-74
2022/04/20 09:52:58;;;;;;;2.78;1.58;;;;;;;;;;5009796;28;20048;-77
2022/04/20 09:55:34;;;;;;;2.58;1.55;;;;;;;;;;5008604;28;20053;-74
2022/04/20 09:58:09;;;;;;;2.83;1.48;;;;;;;;;;5002133;28;20443;-75
2022/04/20 10:00:42;;;;;;;4.20;1.67;;;;;;;;;;4992246;28;20478;-75
2022/04/20 10:03:08;;;;;;;5.17;1.63;;;;;;;;;;5007737;28;20045;-74
2022/04/20 10:05:37;;;;;;;6.30;1.55;;;;;;;;;;4989518;28;20053;-74
2022/04/20 10:08:04;;;;;;;1.55;1.23;;;;;;;;;;4993293;28;20402;-77
2022/04/20 10:10:30;;;;;;;2.90;1.20;;;;;;;;;;4993249;28;20081;-74
2022/04/20 10:12:57;;;;;;;2.95;1.45;;;;;;;;;;4990670;28;20122;-74
2022/04/20 10:18:19;;;;;;;2.40;1.20;;;;;;;;;;4993216;28;20494;-74
2022/04/20 10:20:48;;;;;;;1.85;1.13;;;;;;;;;;5010910;28;20078;-76
2022/04/20 10:23:17;;;;;;;2.90;1.20;;;;;;;;;;5006856;28;20038;-74
2022/04/20 10:25:44;;;;;;;3.80;1.40;;;;;;;;;;4988122;28;20112;-74
2022/04/20 10:28:17;;;;;;;4.38;1.30;;;;;;;;;;5010059;28;20081;-74
2022/04/20 10:31:02;;;;;;;1.88;1.20;;;;;;;;;;5010059;28;20035;-74
2022/04/20 10:33:31;;;;;;;1.85;1.23;;;;;;;;;;4995989;28;20057;-75
2022/04/20 10:36:05;;;;;;;3.10;1.40;;;;;;;;;;5007682;28;20040;-74
2022/04/20 10:38:32;;;;;;;1.70;1.52;;;;;;;;;;4991793;28;20046;-74
2022/04/20 10:41:02;;;;;;;3.03;1.30;;;;;;;;;;5006424;28;20042;-75
2022/04/20 10:43:29;;;;;;;2.83;1.67;;;;;;;;;;4976946;28;20461;-74
2022/04/20 10:46:05;;;;;;;2.70;1.20;;;;;;;;;;5009414;28;21134;-74
2022/04/20 10:48:48;;;;;;;2.90;1.60;;;;;;;;;;5009752;28;20481;-74
2022/04/20 10:51:16;;;;;;;6.72;1.88;;;;;;;;;;4991877;28;20046;-74
2022/04/20 10:53:43;;;;;;;2.97;1.25;;;;;;;;;;4991214;28;20483;-74
2022/04/20 10:56:10;;;;;;;2.00;1.52;;;;;;;;;;4992247;28;20384;-74
2022/04/20 10:58:36;;;;;;;4.05;1.52;;;;;;;;;;4997730;28;20369;-75
2022/04/20 11:01:09;;;;;;;5.00;1.50;;;;;;;;;;5004537;28;20129;-75
2022/04/20 11:03:54;;;;;;;1.40;1.23;;;;;;;;;;5008059;28;20037;-75
2022/04/20 11:06:20;;;;;;;3.00;1.20;;;;;;;;;;5009575;28;20042;-76
2022/04/20 11:08:46;;;;;;;2.58;0.90;;;;;;;;;;5008231;28;20049;-75
2022/04/20 11:19:49;;;;;;;2.67;0.95;;;;;;;;;;5007979;28;20129;-75
2022/04/20 11:22:16;;;;;;;2.85;1.15;;;;;;;;;;5006227;28;20034;-75
2022/04/20 11:24:42;;;;;;;3.03;1.02;;;;;;;;;;5009806;28;20045;-75
2022/04/20 11:27:08;;;;;;;2.70;1.23;;;;;;;;;;4978632;28;20049;-75
2022/04/20 11:29:35;;;;;;;3.05;1.13;;;;;;;;;;5003914;28;20049;-75
2022/04/20 11:32:03;;;;;;;2.80;0.90;;;;;;;;;;4969885;28;20453;-75
2022/04/20 11:34:31;;;;;;;1.02;0.93;;;;;;;;;;4990717;28;20052;-75
2022/04/20 11:37:00;;;;;;;3.55;1.25;;;;;;;;;;4990689;28;20076;-76
2022/04/20 11:39:28;;;;;;;2.67;0.90;;;;;;;;;;4991620;28;20544;-75
2022/04/20 11:41:58;;;;;;;1.17;0.88;;;;;;;;;;5006805;28;20034;-75
2022/04/20 11:44:24;;;;;;;1.13;0.80;;;;;;;;;;4977692;28;20045;-76
2022/04/20 11:46:51;;;;;;;1.02;0.80;;;;;;;;;;5008436;28;20125;-75
2022/04/20 11:49:18;;;;;;;2.03;1.13;;;;;;;;;;5009770;28;20038;-76
2022/04/20 11:51:45;;;;;;;1.70;1.10;;;;;;;;;;4993128;28;20042;-75
2022/04/20 11:54:17;;;;;;;1.33;0.77;;;;;;;;;;4994929;28;20516;-76
2022/04/20 11:56:43;;;;;;;1.40;0.70;;;;;;;;;;4992870;28;20101;-75
2022/04/20 11:59:09;;;;;;;1.83;0.93;;;;;;;;;;5004984;28;20109;-73
2022/04/20 12:01:38;;;;;;;2.80;0.90;;;;;;;;;;4992960;28;20080;-74
2022/04/20 12:04:18;;;;;;;2.65;0.95;;;;;;;;;;5010853;28;20108;-75
2022/04/20 12:06:45;;;;;;;3.40;0.93;;;;;;;;;;4999955;28;20129;-74
2022/04/20 12:09:12;;;;;;;2.25;0.95;;;;;;;;;;5012522;28;20053;-75
2022/04/20 12:11:38;;;;;;;2.63;0.90;;;;;;;;;;5003116;28;20393;-74
2022/04/20 12:14:04;;;;;;;1.63;0.70;;;;;;;;;;5011333;28;20042;-74
2022/04/20 12:16:33;;;;;;;2.97;1.10;;;;;;;;;;4985950;28;20434;-74
2022/04/20 12:19:00;;;;;;;2.25;0.98;;;;;;;;;;5010900;28;20038;-74
2022/04/20 12:21:58;;;;;;;1.88;0.70;;;;;;;;;;4997793;28;20124;-74
2022/04/20 12:24:28;;;;;;;1.70;0.70;;;;;;;;;;4975222;28;20050;-74
2022/04/20 12:26:55;;;;;;;1.00;0.80;;;;;;;;;;5010430;28;20369;-74
2022/04/20 12:29:22;;;;;;;2.13;0.80;;;;;;;;;;4994503;28;20461;-75
2022/04/20 12:31:54;;;;;;;1.33;0.70;;;;;;;;;;4993444;28;20046;-74
2022/04/20 12:34:21;;;;;;;2.63;0.98;;;;;;;;;;4995432;28;20046;-75
2022/04/20 12:36:51;;;;;;;2.45;1.00;;;;;;;;;;5010325;28;20594;-77
2022/04/20 12:39:34;;;;;;;2.88;1.00;;;;;;;;;;4994178;28;20076;-77
2022/04/20 12:42:10;;;;;;;1.20;0.85;;;;;;;;;;4993207;28;20046;-74
2022/04/20 12:44:38;;;;;;;0.98;0.80;;;;;;;;;;5006371;28;20043;-74
2022/04/20 12:47:11;;;;;;;1.75;1.00;;;;;;;;;;4976158;28;20129;-73
2022/04/20 12:49:40;;;;;;;1.85;0.95;;;;;;;;;;5008499;28;20042;-73
2022/04/20 12:52:14;;;;;;;1.15;0.90;;;;;;;;;;5008933;28;20057;-74
2022/04/20 12:54:41;;;;;;;1.20;1.10;;;;;;;;;;5011368;28;20042;-75
2022/04/20 13:02:57;;;;;;;1.20;0.70;;;;;;;;;;4981869;28;20057;-74
2022/04/20 13:05:24;;;;;;;1.50;0.85;;;;;;;;;;4996080;28;20042;-74
2022/04/20 13:07:50;;;;;;;1.23;1.00;;;;;;;;;;4962799;28;20069;-75
2022/04/20 13:10:17;;;;;;;4.88;0.90;;;;;;;;;;4978732;28;20042;-75
2022/04/20 13:12:50;;;;;;;3.08;1.10;;;;;;;;;;4994540;28;20046;-73
2022/04/20 13:15:17;;;;;;;3.63;1.13;;;;;;;;;;5007311;28;20442;-75
2022/04/20 13:17:43;;;;;;;2.05;1.10;;;;;;;;;;4993222;28;20097;-74
2022/04/20 13:20:09;;;;;;;1.20;1.00;;;;;;;;;;4990342;28;20053;-76
2022/04/20 13:22:35;;;;;;;3.08;1.10;;;;;;;;;;4979318;28;20044;-74
2022/04/20 13:27:55;;;;;;;2.92;0.90;;;;;;;;;;4994160;28;20045;-73
2022/04/20 13:30:25;;;;;;;1.92;1.25;;;;;;;;;;4987225;28;20053;-74
2022/04/20 13:32:52;;;;;;;2.53;1.35;;;;;;;;;;5009458;28;20052;-74
2022/04/20 13:35:18;;;;;;;1.13;0.90;;;;;;;;;;4990231;28;20053;-74
2022/04/20 13:37:45;;;;;;;4.32;2.22;;;;;;;;;;5010027;28;20041;-74
2022/04/20 13:40:11;;;;;;;8.60;2.97;;;;;;;;;;5005126;28;20058;-75
2022/04/20 13:42:37;;;;;;;5.25;3.17;;;;;;;;;;5014621;28;20176;-74
2022/04/20 13:45:04;;;;;;;6.65;3.03;;;;;;;;;;4993924;28;20073;-74
2022/04/20 13:47:30;;;;;;;4.70;3.20;;;;;;;;;;4993731;28;20050;-74
2022/04/20 13:49:57;;;;;;;5.07;3.10;;;;;;;;;;5000940;28;20045;-75
2022/04/20 13:52:24;;;;;;;5.97;3.13;;;;;;;;;;5009014;28;20048;-75
2022/04/20 13:54:50;;;;;;;4.55;2.95;;;;;;;;;;5008952;28;20069;-74
2022/04/20 13:57:16;;;;;;;5.18;3.20;;;;;;;;;;5007788;28;20139;-74
2022/04/20 13:59:42;;;;;;;5.40;3.25;;;;;;;;;;5010754;28;20046;-75
2022/04/20 14:02:08;;;;;;;5.20;2.95;;;;;;;;;;4998107;28;20081;-75
2022/04/20 14:04:35;;;;;;;3.72;3.00;;;;;;;;;;5011429;28;20486;-74
2022/04/20 14:07:03;;;;;;;10.15;3.35;;;;;;;;;;4977638;28;20050;-76
2022/04/20 14:09:29;;;;;;;7.30;3.08;;;;;;;;;;4977590;28;20136;-75
2022/04/20 14:11:55;;;;;;;6.40;3.25;;;;;;;;;;5006502;28;20053;-74
2022/04/20 14:14:21;;;;;;;5.53;2.60;;;;;;;;;;5010091;28;20064;-75
2022/04/20 14:16:48;;;;;;;5.72;3.40;;;;;;;;;;5009774;28;20069;-74
2022/04/20 14:19:14;;;;;;;5.82;3.30;;;;;;;;;;4982576;28;20046;-74
2022/04/20 14:21:41;;;;;;;4.30;2.95;;;;;;;;;;5009407;28;20061;-75
2022/04/20 14:24:07;;;;;;;7.95;3.60;;;;;;;;;;5009518;28;20046;-74
2022/04/20 14:32:09;;;;;;;6.32;3.50;;;;;;;;;;4993696;28;20072;-75
2022/04/20 14:34:35;;;;;;;6.80;3.95;;;;;;;;;;5009744;28;20050;-74
2022/04/20 14:37:02;;;;;;;8.68;3.95;;;;;;;;;;5016818;28;20053;-74
2022/04/20 14:39:28;;;;;;;7.22;3.95;;;;;;;;;;5010488;28;20548;-74
2022/04/20 14:41:54;;;;;;;4.28;3.72;;;;;;;;;;5008415;28;20038;-75
2022/04/20 14:44:20;;;;;;;5.93;4.30;;;;;;;;;;5005517;28;20042;-74
2022/04/20 14:46:46;;;;;;;6.05;4.03;;;;;;;;;;5009025;28;20051;-75
2022/04/20 14:49:12;;;;;;;6.32;4.45;;;;;;;;;;5009639;28;20045;-75
2022/04/20 14:51:39;;;;;;;9.88;4.90;;;;;;;;;;4979571;28;20053;-75
2022/04/20 14:54:05;;;;;;;5.95;5.03;;;;;;;;;;5009587;28;20042;-75
2022/04/20 14:56:31;;;;;;;5.93;4.57;;;;;;;;;;4993711;28;20300;-75
2022/04/20 14:59:00;;;;;;;7.38;5.10;;;;;;;;;;5006926;28;20038;-75
2022/04/20 15:01:26;;;;;;;12.63;5.15;;;;;;;;;;5008705;28;20052;-75
2022/04/20 15:03:52;;;;;;;7.45;4.93;;;;;;;;;;4992692;28;20501;-75
2022/04/20 15:06:18;;;;;;;9.32;5.20;;;;;;;;;;4976786;28;20080;-74
2022/04/20 15:08:45;;;;;;;10.07;5.13;;;;;;;;;;5009231;28;20057;-75
2022/04/20 15:11:12;;;;;;;8.02;5.35;;;;;;;;;;5006748;28;20037;-75
2022/04/20 15:13:39;;;;;;;6.10;5.25;;;;;;;;;;5010338;28;20084;-75
2022/04/20 15:16:05;;;;;;;8.52;5.53;;;;;;;;;;5007791;28;20041;-75
2022/04/20 15:18:31;;;;;;;7.78;5.03;;;;;;;;;;5008878;28;20454;-74
2022/04/20 15:21:01;;;;;;;8.40;5.55;;;;;;;;;;5008740;28;20105;-75
2022/04/20 15:23:28;;;;;;;5.47;4.97;;;;;;;;;;4991484;28;20275;-75
2022/04/20 15:25:54;;;;;;;6.78;4.60;;;;;;;;;;4976549;28;20092;-75
2022/04/20 15:28:20;;;;;;;7.57;5.35;;;;;;;;;;4984707;28;20049;-75
2022/04/20 15:30:46;;;;;;;10.98;5.82;;;;;;;;;;4992350;28;20469;-74
2022/04/20 15:33:14;;;;;;;10.25;5.80;;;;;;;;;;5009822;28;20045;-74
2022/04/20 15:35:41;;;;;;;6.47;5.72;;;;;;;;;;4982720;28;20049;-75
2022/04/20 15:38:07;;;;;;;7.78;5.88;;;;;;;;;;5005666;28;20078;-74
2022/04/20 15:40:35;;;;;;;7.38;5.53;;;;;;;;;;5011597;28;20089;-74
2022/04/20 15:43:04;;;;;;;7.70;5.93;;;;;;;;;;4984274;28;20068;-75
2022/04/20 15:45:34;;;;;;;6.40;5.68;;;;;;;;;;5011712;28;20497;-75
2022/04/20 15:48:03;;;;;;;7.47;5.68;;;;;;;;;;5012838;28;20699;-75
2022/04/20 15:50:30;;;;;;;12.13;5.60;;;;;;;;;;5004806;28;20104;-75